createdAt,value
2018-01-16T00:00:07.113Z,87.20
2018-01-16T00:02:34.059Z,87.60
2018-01-16T00:05:00.719Z,87.20
2018-01-16T00:07:27.282Z,86.80
2018-01-16T00:09:53.884Z,86.60
2018-01-16T00:12:20.449Z,86.40
2018-01-16T00:14:47.201Z,86.80
2018-01-16T00:17:14.040Z,87.10
2018-01-16T00:19:41.246Z,87.00
2018-01-16T00:22:08.041Z,86.70
2018-01-16T00:24:34.731Z,86.40
2018-01-16T00:27:01.488Z,85.90
2018-01-16T00:29:28.544Z,85.60
2018-01-16T00:31:55.068Z,85.60
2018-01-16T00:34:21.633Z,85.30
2018-01-16T00:36:48.501Z,85.60
2018-01-16T00:39:15.920Z,85.80
2018-01-16T00:41:43.132Z,85.70
2018-01-16T00:44:10.598Z,85.80
2018-01-16T00:46:37.297Z,85.80
2018-01-16T00:49:04.510Z,86.00
2018-01-16T00:51:31.135Z,86.10
2018-01-16T00:53:57.749Z,86.30
2018-01-16T00:56:24.677Z,86.90
2018-01-16T00:58:51.308Z,86.90
2018-01-16T01:01:17.980Z,87.70
2018-01-16T01:03:45.328Z,88.50
2018-01-16T01:06:13.007Z,88.30
2018-01-16T01:08:39.673Z,88.30
2018-01-16T01:11:06.537Z,87.70
2018-01-16T01:13:33.361Z,87.50
2018-01-16T01:15:59.921Z,87.20
2018-01-16T01:18:26.520Z,86.80
2018-01-16T01:20:53.098Z,85.50
2018-01-16T01:23:19.718Z,85.40
2018-01-16T01:25:46.365Z,85.00
2018-01-16T01:28:13.496Z,84.70
2018-01-16T01:30:41.078Z,84.60
2018-01-16T01:33:08.030Z,85.10
2018-01-16T01:35:35.050Z,86.10
2018-01-16T01:38:01.620Z,86.10
2018-01-16T01:40:28.219Z,85.40
2018-01-16T01:42:54.788Z,85.00
2018-01-16T01:45:21.323Z,84.70
2018-01-16T01:47:47.974Z,84.80
2018-01-16T01:50:15.288Z,84.90
2018-01-16T01:52:42.363Z,84.40
2018-01-16T01:55:09.643Z,84.20
2018-01-16T01:57:36.653Z,83.70
2018-01-16T02:00:03.464Z,83.70
2018-01-16T02:02:30.131Z,83.80
2018-01-16T02:04:56.697Z,84.00
2018-01-16T02:07:23.241Z,84.10
2018-01-16T02:09:49.900Z,84.20
2018-01-16T02:12:16.612Z,84.00
2018-01-16T02:14:45.326Z,83.90
2018-01-16T02:17:13.402Z,83.90
2018-01-16T02:19:42.048Z,84.20
2018-01-16T02:22:08.769Z,84.20
2018-01-16T02:24:35.425Z,84.20
2018-01-16T02:27:02.098Z,84.50
2018-01-16T02:29:28.877Z,85.10
2018-01-16T02:31:55.438Z,85.30
2018-01-16T02:34:22.016Z,85.60
2018-01-16T02:36:48.696Z,85.80
2018-01-16T02:39:15.832Z,85.60
2018-01-16T02:41:43.403Z,85.70
2018-01-16T02:44:10.525Z,85.70
2018-01-16T02:46:37.639Z,85.40
2018-01-16T02:49:04.316Z,85.30
2018-01-16T02:51:30.920Z,85.60
2018-01-16T02:53:57.477Z,85.60
2018-01-16T02:56:24.068Z,85.80
2018-01-16T02:58:50.629Z,86.20
2018-01-16T03:01:17.348Z,86.50
2018-01-16T03:03:44.473Z,86.80
2018-01-16T03:06:12.984Z,87.30
2018-01-16T03:08:40.751Z,87.40
2018-01-16T03:11:07.578Z,87.30
2018-01-16T03:13:34.519Z,87.60
2018-01-16T03:16:01.129Z,87.70
2018-01-16T03:18:27.836Z,87.70
2018-01-16T03:20:54.457Z,87.90
2018-01-16T03:23:21.135Z,88.00
2018-01-16T03:25:48.080Z,88.40
2018-01-16T03:28:16.069Z,88.70
2018-01-16T03:30:45.100Z,88.90
2018-01-16T03:33:14.397Z,88.70
2018-01-16T03:35:41.552Z,88.70
2018-01-16T03:38:08.307Z,88.50
2018-01-16T03:40:35.668Z,88.40
2018-01-16T03:43:02.828Z,88.40
2018-01-16T03:45:29.449Z,88.40
2018-01-16T03:47:56.100Z,88.30
2018-01-16T03:50:22.649Z,88.00
2018-01-16T03:52:49.605Z,88.00
2018-01-16T03:55:17.018Z,87.50
2018-01-16T03:57:44.935Z,87.40
2018-01-16T04:00:14.896Z,87.40
2018-01-16T04:02:42.091Z,87.40
2018-01-16T04:05:09.301Z,88.20
2018-01-16T04:07:35.913Z,88.20
2018-01-16T04:10:03.368Z,88.90
2018-01-16T04:12:29.953Z,89.00
2018-01-16T04:14:56.521Z,89.00
2018-01-16T04:17:23.092Z,88.90
2018-01-16T04:19:49.843Z,88.80
2018-01-16T04:22:17.107Z,88.90
2018-01-16T04:24:45.403Z,88.80
2018-01-16T04:27:12.989Z,88.50
2018-01-16T04:29:40.951Z,88.00
2018-01-16T04:32:07.800Z,87.70
2018-01-16T04:34:34.446Z,87.60
2018-01-16T04:37:01.509Z,86.90
2018-01-16T04:39:28.568Z,86.30
2018-01-16T04:41:55.324Z,86.30
2018-01-16T04:44:21.884Z,85.80
2018-01-16T04:46:48.808Z,85.30
2018-01-16T04:49:16.598Z,84.70
2018-01-16T04:51:45.309Z,84.70
2018-01-16T04:54:14.174Z,84.30
2018-01-16T04:56:44.026Z,84.20
2018-01-16T04:59:12.322Z,84.10
2018-01-16T05:01:39.160Z,83.70
2018-01-16T05:04:05.817Z,83.80
2018-01-16T05:06:33.115Z,83.60
2018-01-16T05:09:00.109Z,83.40
2018-01-16T05:11:26.668Z,83.40
2018-01-16T05:13:53.341Z,83.30
2018-01-16T05:16:21.084Z,83.40
2018-01-16T05:18:48.086Z,83.50
2018-01-16T05:21:14.921Z,83.70
2018-01-16T05:23:41.674Z,83.90
2018-01-16T05:26:08.425Z,83.90
2018-01-16T05:28:35.061Z,83.70
2018-01-16T05:31:01.697Z,83.80
2018-01-16T05:33:28.273Z,83.70
2018-01-16T05:35:55.026Z,83.70
2018-01-16T05:38:21.985Z,83.80
2018-01-16T05:40:50.584Z,83.60
2018-01-16T05:43:18.837Z,83.60
2018-01-16T05:45:45.807Z,83.50
2018-01-16T05:48:12.849Z,83.60
2018-01-16T05:50:40.658Z,83.30
2018-01-16T05:53:07.306Z,83.30
2018-01-16T05:55:33.929Z,82.80
2018-01-16T05:58:00.497Z,82.90
2018-01-16T06:00:27.052Z,82.80
2018-01-16T06:02:54.000Z,82.80
2018-01-16T06:05:22.186Z,82.40
2018-01-16T06:07:49.863Z,82.50
2018-01-16T06:10:20.111Z,82.50
2018-01-16T06:12:48.724Z,82.30
2018-01-16T06:15:15.388Z,82.30
2018-01-16T06:17:42.368Z,82.50
2018-01-16T06:20:09.148Z,82.50
2018-01-16T06:22:35.813Z,82.20
2018-01-16T06:25:02.376Z,82.20
2018-01-16T06:27:28.999Z,81.90
2018-01-16T06:29:55.752Z,82.10
2018-01-16T06:32:22.432Z,82.00
2018-01-16T06:34:49.496Z,81.90
2018-01-16T06:37:16.153Z,81.70
2018-01-16T06:39:43.488Z,81.70
2018-01-16T06:42:10.436Z,81.70
2018-01-16T06:44:37.469Z,81.90
2018-01-16T06:47:04.140Z,81.80
2018-01-16T06:49:30.761Z,81.70
2018-01-16T06:51:57.288Z,81.80
2018-01-16T06:54:24.605Z,82.00
2018-01-16T06:56:52.488Z,81.90
2018-01-16T06:59:19.647Z,81.90
2018-01-16T07:01:46.488Z,82.00
2018-01-16T07:04:13.241Z,81.80
2018-01-16T07:06:39.781Z,81.70
2018-01-16T07:09:06.440Z,81.30
2018-01-16T07:11:33.125Z,81.40
2018-01-16T07:14:00.049Z,81.60
2018-01-16T07:16:27.214Z,81.60
2018-01-16T07:18:54.301Z,81.70
2018-01-16T07:21:21.711Z,82.00
2018-01-16T07:23:48.774Z,81.90
2018-01-16T07:26:15.543Z,81.80
2018-01-16T07:28:42.292Z,82.10
2018-01-16T07:31:08.901Z,82.20
2018-01-16T07:33:35.569Z,82.40
2018-01-16T07:36:02.113Z,81.90
2018-01-16T07:38:28.681Z,82.20
2018-01-16T07:40:55.538Z,82.00
2018-01-16T07:43:22.602Z,82.10
2018-01-16T07:45:49.561Z,82.20
2018-01-16T07:48:16.617Z,82.60
2018-01-16T07:50:43.441Z,82.60
2018-01-16T07:53:10.109Z,82.70
2018-01-16T07:55:36.741Z,82.80
2018-01-16T07:58:03.497Z,81.80
2018-01-16T08:00:30.145Z,82.00
2018-01-16T08:02:57.028Z,81.80
2018-01-16T08:05:24.368Z,80.60
2018-01-16T08:07:51.238Z,80.70
2018-01-16T08:10:18.919Z,79.10
2018-01-16T08:12:45.901Z,78.90
2018-01-16T08:15:12.708Z,78.90
2018-01-16T08:17:39.441Z,78.50
2018-01-16T08:20:06.025Z,77.80
2018-01-16T08:22:32.653Z,77.60
2018-01-16T08:24:59.216Z,77.10
2018-01-16T08:27:25.857Z,77.70
2018-01-16T08:29:53.047Z,77.10
2018-01-16T08:32:20.814Z,76.50
2018-01-16T08:34:47.492Z,76.50
2018-01-16T08:37:14.315Z,76.50
2018-01-16T08:39:41.066Z,76.60
2018-01-16T08:42:07.922Z,76.60
2018-01-16T08:44:34.572Z,75.90
2018-01-16T08:47:01.141Z,75.90
2018-01-16T08:49:27.697Z,75.30
2018-01-16T08:51:54.323Z,75.30
2018-01-16T08:54:21.447Z,75.10
2018-01-16T08:56:48.547Z,75.20
2018-01-16T08:59:15.552Z,74.90
2018-01-16T09:01:42.192Z,74.90
2018-01-16T09:04:09.140Z,74.40
2018-01-16T09:06:36.088Z,74.30
2018-01-16T09:09:02.777Z,74.30
2018-01-16T09:11:29.309Z,73.60
2018-01-16T09:13:55.937Z,73.50
2018-01-16T09:16:22.701Z,74.10
2018-01-16T09:18:50.223Z,74.30
2018-01-16T09:21:17.212Z,75.20
2018-01-16T09:23:45.263Z,75.40
2018-01-16T09:26:11.972Z,75.40
2018-01-16T09:28:38.565Z,75.20
2018-01-16T09:31:05.285Z,77.20
2018-01-16T09:33:31.825Z,80.30
2018-01-16T09:35:58.819Z,80.50
2018-01-16T09:38:25.457Z,81.00
2018-01-16T09:40:52.231Z,81.50
2018-01-16T09:43:18.925Z,80.30
2018-01-16T09:45:45.501Z,81.20
2018-01-16T09:48:12.069Z,79.80
2018-01-16T09:50:38.664Z,79.10
2018-01-16T09:53:05.245Z,79.00
2018-01-16T09:55:31.781Z,79.10
2018-01-16T09:57:58.345Z,78.60
2018-01-16T10:00:24.944Z,79.80
2018-01-16T10:02:51.597Z,79.30
2018-01-16T10:05:18.213Z,79.80
2018-01-16T10:07:44.825Z,79.90
2018-01-16T10:10:11.353Z,78.90
2018-01-16T10:12:37.949Z,78.70
2018-01-16T10:15:04.552Z,79.00
2018-01-16T10:17:31.140Z,77.50
2018-01-16T10:19:57.697Z,77.30
2018-01-16T10:22:24.288Z,77.20
2018-01-16T10:24:50.868Z,77.40
2018-01-16T10:27:17.467Z,76.40
2018-01-16T10:29:44.109Z,75.70
2018-01-16T10:32:11.081Z,75.80
2018-01-16T10:34:38.033Z,75.50
2018-01-16T10:37:05.053Z,74.90
2018-01-16T10:39:31.703Z,74.90
2018-01-16T10:41:58.454Z,75.80
2018-01-16T10:44:25.103Z,75.70
2018-01-16T10:46:51.657Z,75.40
2018-01-16T10:49:18.433Z,74.60
2018-01-16T10:51:45.509Z,75.20
2018-01-16T10:54:12.473Z,75.60
2018-01-16T10:56:39.112Z,75.60
2018-01-16T10:59:05.716Z,74.70
2018-01-16T11:01:32.255Z,75.20
2018-01-16T11:03:58.886Z,75.80
2018-01-16T11:06:25.533Z,74.60
2018-01-16T11:08:52.304Z,74.90
2018-01-16T11:11:18.934Z,75.40
2018-01-16T11:13:45.544Z,74.70
2018-01-16T11:16:12.085Z,74.80
2018-01-16T11:18:38.660Z,75.30
2018-01-16T11:21:05.253Z,74.60
2018-01-16T11:23:31.873Z,74.90
2018-01-16T11:25:58.441Z,75.00
2018-01-16T11:28:25.050Z,74.60
2018-01-16T11:30:51.849Z,77.30
2018-01-16T11:33:19.014Z,78.60
2018-01-16T11:35:45.763Z,79.60
2018-01-16T11:38:12.412Z,79.90
2018-01-16T11:40:39.038Z,82.10
2018-01-16T11:43:05.596Z,82.60
2018-01-16T11:45:32.151Z,82.70
2018-01-16T11:47:58.777Z,82.40
2018-01-16T11:50:25.432Z,81.00
2018-01-16T11:52:52.210Z,81.40
2018-01-16T11:55:18.791Z,81.40
2018-01-16T11:57:45.377Z,80.90
2018-01-16T12:00:11.949Z,80.60
2018-01-16T12:02:38.520Z,80.50
2018-01-16T12:05:05.141Z,80.50
2018-01-16T12:07:31.724Z,80.90
2018-01-16T12:09:58.308Z,80.70
2018-01-16T12:12:24.873Z,80.50
2018-01-16T12:14:51.450Z,80.90
2018-01-16T12:17:18.410Z,81.10
2018-01-16T12:19:45.038Z,81.40
2018-01-16T12:22:11.573Z,81.80
2018-01-16T12:24:38.156Z,83.10
2018-01-16T12:27:04.716Z,84.40
2018-01-16T12:29:31.633Z,85.90
2018-01-16T12:31:58.201Z,85.90
2018-01-16T12:34:24.848Z,85.80
2018-01-16T12:36:51.516Z,86.40
2018-01-16T12:39:19.176Z,87.00
2018-01-16T12:41:45.745Z,86.90
2018-01-16T12:44:12.654Z,87.30
2018-01-16T12:46:39.346Z,87.30
2018-01-16T12:49:06.296Z,87.50
2018-01-16T12:51:33.217Z,87.70
2018-01-16T12:53:59.784Z,87.70
2018-01-16T12:56:26.341Z,87.90
2018-01-16T12:58:52.952Z,87.70
2018-01-16T13:01:19.676Z,87.80
2018-01-16T13:03:46.265Z,86.80
2018-01-16T13:06:12.830Z,86.60
2018-01-16T13:08:39.456Z,86.90
2018-01-16T13:11:06.055Z,86.90
2018-01-16T13:13:32.981Z,87.30
2018-01-16T13:15:59.573Z,87.30
2018-01-16T13:18:26.157Z,87.40
2018-01-16T13:20:52.917Z,87.10
2018-01-16T13:23:19.745Z,86.60
2018-01-16T13:25:46.389Z,86.20
2018-01-16T13:28:12.936Z,85.80
2018-01-16T13:30:39.926Z,85.00
2018-01-16T13:33:06.617Z,85.20
2018-01-16T13:35:33.558Z,85.30
2018-01-16T13:38:00.589Z,85.70
2018-01-16T13:40:27.312Z,85.70
2018-01-16T13:42:53.997Z,85.30
2018-01-16T13:45:20.861Z,84.90
2018-01-16T13:47:47.857Z,85.70
2018-01-16T13:50:14.416Z,85.70
2018-01-16T13:52:41.089Z,85.70
2018-01-16T13:55:07.685Z,85.90
2018-01-16T13:57:34.621Z,85.90
2018-01-16T14:00:01.185Z,85.90
2018-01-16T14:02:28.121Z,85.50
2018-01-16T14:04:54.759Z,85.50
2018-01-16T14:07:21.617Z,85.20
2018-01-16T14:09:48.272Z,84.50
2018-01-16T14:12:14.820Z,85.50
2018-01-16T14:14:41.434Z,87.00
2018-01-16T14:17:08.423Z,88.40
2018-01-16T14:19:34.969Z,90.60
2018-01-16T14:22:01.661Z,91.20
2018-01-16T14:24:28.605Z,92.40
2018-01-16T14:26:55.192Z,92.50
2018-01-16T14:29:21.838Z,93.20
2018-01-16T14:31:49.056Z,93.90
2018-01-16T14:34:15.948Z,93.50
2018-01-16T14:36:42.542Z,94.80
2018-01-16T14:39:09.186Z,97.00
2018-01-16T14:41:35.834Z,97.50
2018-01-16T14:44:02.417Z,97.40
2018-01-16T14:46:29.012Z,97.80
2018-01-16T14:48:55.549Z,97.90
2018-01-16T14:51:22.328Z,98.10
2018-01-16T14:53:49.569Z,97.80
2018-01-16T14:56:16.141Z,98.00
2018-01-16T14:58:42.807Z,98.10
2018-01-16T15:01:09.409Z,98.40
2018-01-16T15:03:35.986Z,98.40
2018-01-16T15:06:02.609Z,98.30
2018-01-16T15:08:29.233Z,98.50
2018-01-16T15:10:56.141Z,98.50
2018-01-16T15:13:22.982Z,98.50
2018-01-16T15:15:49.665Z,98.40
2018-01-16T15:18:16.204Z,98.50
2018-01-16T15:20:42.777Z,98.30
2018-01-16T15:23:09.765Z,97.80
2018-01-16T15:25:36.321Z,97.80
2018-01-16T15:28:02.905Z,97.60
2018-01-16T15:30:29.513Z,97.70
2018-01-16T15:32:56.087Z,97.20
2018-01-16T15:35:23.028Z,96.90
2018-01-16T15:37:50.858Z,96.90
2018-01-16T15:40:17.433Z,97.20
2018-01-16T15:42:44.432Z,97.30
2018-01-16T15:45:11.073Z,97.60
2018-01-16T15:47:37.929Z,97.20
2018-01-16T15:50:04.593Z,97.20
2018-01-16T15:52:31.228Z,97.00
2018-01-16T15:54:57.760Z,97.10
2018-01-16T15:57:24.506Z,97.00
2018-01-16T15:59:51.685Z,97.20
2018-01-16T16:02:19.464Z,96.80
2018-01-16T16:04:46.316Z,96.60
2018-01-16T16:07:12.880Z,96.80
2018-01-16T16:09:39.616Z,96.80
2018-01-16T16:12:06.473Z,96.90
2018-01-16T16:14:33.056Z,97.20
2018-01-16T16:17:00.077Z,97.40
2018-01-16T16:19:26.697Z,97.40
2018-01-16T16:21:53.375Z,97.20
2018-01-16T16:24:20.026Z,97.50
2018-01-16T16:26:46.597Z,97.60
2018-01-16T16:29:13.279Z,97.70
2018-01-16T16:31:39.840Z,97.80
2018-01-16T16:34:06.726Z,97.00
2018-01-16T16:36:33.473Z,96.90
2018-01-16T16:39:00.098Z,96.50
2018-01-16T16:41:26.775Z,96.30
2018-01-16T16:43:53.425Z,96.40
2018-01-16T16:46:19.992Z,95.50
2018-01-16T16:48:47.029Z,95.10
2018-01-16T16:51:13.678Z,95.10
2018-01-16T16:53:40.225Z,94.90
2018-01-16T16:56:07.084Z,94.30
2018-01-16T16:58:33.730Z,93.80
2018-01-16T17:01:00.354Z,93.80
2018-01-16T17:03:26.920Z,94.40
2018-01-16T17:05:53.673Z,94.00
2018-01-16T17:08:21.044Z,94.20
2018-01-16T17:10:48.408Z,93.90
2018-01-16T17:13:15.133Z,93.90
2018-01-16T17:15:41.672Z,93.80
2018-01-16T17:18:08.362Z,93.60
2018-01-16T17:20:34.905Z,92.80
2018-01-16T17:23:01.469Z,93.50
2018-01-16T17:25:28.032Z,93.60
2018-01-16T17:27:54.613Z,94.40
2018-01-16T17:30:21.390Z,94.10
2018-01-16T17:32:48.357Z,93.80
2018-01-16T17:35:21.952Z,93.50
2018-01-16T17:37:49.543Z,93.30
2018-01-16T17:40:16.162Z,93.00
2018-01-16T17:42:42.831Z,92.00
2018-01-16T17:45:09.461Z,92.80
2018-01-16T17:47:36.016Z,92.30
2018-01-16T17:50:02.691Z,92.00
2018-01-16T17:52:29.304Z,92.10
2018-01-16T17:54:55.862Z,90.80
2018-01-16T17:57:22.478Z,90.00
2018-01-16T17:59:49.406Z,89.60
2018-01-16T18:02:16.031Z,90.00
2018-01-16T18:04:42.652Z,90.20
2018-01-16T18:07:09.247Z,89.90
2018-01-16T18:09:35.881Z,89.60
2018-01-16T18:12:02.531Z,89.60
2018-01-16T18:14:29.181Z,89.30
2018-01-16T18:16:55.729Z,89.30
2018-01-16T18:19:22.482Z,89.60
2018-01-16T18:21:49.441Z,89.70
2018-01-16T18:24:16.186Z,88.90
2018-01-16T18:26:42.836Z,88.90
2018-01-16T18:29:09.509Z,88.90
2018-01-16T18:31:36.060Z,89.30
2018-01-16T18:34:02.601Z,89.50
2018-01-16T18:36:29.248Z,89.70
2018-01-16T18:38:55.880Z,89.90
2018-01-16T18:41:22.460Z,90.30
2018-01-16T18:43:49.486Z,90.30
2018-01-16T18:46:16.041Z,90.30
2018-01-16T18:48:43.146Z,89.90
2018-01-16T18:51:09.742Z,89.50
2018-01-16T18:53:36.276Z,88.60
2018-01-16T18:56:02.857Z,88.50
2018-01-16T18:58:29.392Z,88.60
2018-01-16T19:00:55.989Z,88.60
2018-01-16T19:03:22.568Z,88.60
2018-01-16T19:05:49.132Z,88.60
2018-01-16T19:08:15.844Z,89.00
2018-01-16T19:10:42.422Z,89.20
2018-01-16T19:13:09.004Z,89.30
2018-01-16T19:15:36.499Z,89.00
2018-01-16T19:18:03.191Z,89.00
2018-01-16T19:20:29.760Z,89.20
2018-01-16T19:22:56.297Z,89.30
2018-01-16T19:25:22.932Z,89.60
2018-01-16T19:27:49.541Z,89.90
2018-01-16T19:30:16.112Z,89.70
2018-01-16T19:32:42.681Z,89.70
2018-01-16T19:35:09.217Z,89.90
2018-01-16T19:37:35.789Z,90.50
2018-01-16T19:40:02.878Z,91.80
2018-01-16T19:42:29.416Z,91.80
2018-01-16T19:44:56.377Z,93.20
2018-01-16T19:47:23.390Z,93.60
2018-01-16T19:49:50.021Z,93.60
2018-01-16T19:52:16.791Z,93.50
2018-01-16T19:54:43.338Z,93.20
2018-01-16T19:57:09.913Z,91.80
2018-01-16T19:59:36.641Z,91.90
2018-01-16T20:02:03.257Z,91.40
2018-01-16T20:04:29.821Z,91.80
2018-01-16T20:06:56.383Z,91.60
2018-01-16T20:09:23.340Z,91.10
2018-01-16T20:11:49.900Z,91.10
2018-01-16T20:14:16.873Z,91.90
2018-01-16T20:16:43.900Z,92.10
2018-01-16T20:19:10.549Z,92.10
2018-01-16T20:21:37.317Z,93.10
2018-01-16T20:24:03.920Z,93.70
2018-01-16T20:26:30.476Z,93.70
2018-01-16T20:28:57.122Z,93.80
2018-01-16T20:31:23.799Z,94.10
2018-01-16T20:33:51.367Z,94.40
2018-01-16T20:36:17.970Z,94.50
2018-01-16T20:38:44.667Z,94.30
2018-01-16T20:41:13.467Z,93.80
2018-01-16T20:43:40.500Z,94.00
2018-01-16T20:46:07.278Z,94.00
2018-01-16T20:48:33.826Z,94.20
2018-01-16T20:51:00.449Z,94.50
2018-01-16T20:53:27.128Z,94.90
2018-01-16T20:55:53.689Z,95.20
2018-01-16T20:58:20.325Z,95.50
2018-01-16T21:00:46.972Z,95.60
2018-01-16T21:03:13.553Z,95.70
2018-01-16T21:05:40.578Z,96.00
2018-01-16T21:08:07.330Z,96.00
2018-01-16T21:10:34.400Z,95.70
2018-01-16T21:13:01.038Z,95.80
2018-01-16T21:15:27.689Z,95.90
2018-01-16T21:17:54.337Z,96.00
2018-01-16T21:20:20.996Z,96.10
2018-01-16T21:22:47.587Z,96.30
2018-01-16T21:25:14.137Z,96.10
2018-01-16T21:27:40.694Z,96.10
2018-01-16T21:30:07.383Z,96.10
2018-01-16T21:32:34.131Z,96.00
2018-01-16T21:35:00.882Z,95.80
2018-01-16T21:37:27.456Z,96.10
2018-01-16T21:39:54.053Z,96.20
2018-01-16T21:42:20.653Z,95.90
2018-01-16T21:44:47.678Z,96.10
2018-01-16T21:47:14.328Z,96.10
2018-01-16T21:49:40.938Z,95.80
2018-01-16T21:52:07.802Z,95.70
2018-01-16T21:54:34.371Z,95.80
2018-01-16T21:57:01.005Z,95.90
2018-01-16T21:59:27.593Z,96.10
2018-01-16T22:01:54.197Z,96.10
2018-01-16T22:04:21.071Z,96.10
2018-01-16T22:06:48.141Z,96.10
2018-01-16T22:09:14.760Z,95.90
2018-01-16T22:11:41.325Z,96.20
2018-01-16T22:14:07.877Z,96.20
2018-01-16T22:16:34.713Z,96.30
2018-01-16T22:19:01.329Z,96.40
2018-01-16T22:21:28.229Z,96.50
2018-01-16T22:23:54.877Z,96.50
2018-01-16T22:26:21.957Z,96.60
2018-01-16T22:28:49.013Z,96.70
2018-01-16T22:31:16.071Z,96.50
2018-01-16T22:33:42.665Z,96.50
2018-01-16T22:36:09.574Z,96.50
2018-01-16T22:38:36.197Z,96.60
2018-01-16T22:41:02.752Z,96.70
2018-01-16T22:43:29.314Z,96.80
2018-01-16T22:45:56.275Z,96.50
2018-01-16T22:48:22.926Z,96.30
2018-01-16T22:50:49.982Z,95.70
2018-01-16T22:53:16.631Z,95.30
2018-01-16T22:55:43.201Z,95.10
2018-01-16T22:58:10.112Z,95.10
2018-01-16T23:00:36.757Z,95.50
2018-01-16T23:03:03.435Z,95.50
2018-01-16T23:05:29.985Z,95.70
2018-01-16T23:07:56.564Z,95.60
2018-01-16T23:10:23.791Z,95.70
2018-01-16T23:12:50.748Z,95.70
2018-01-16T23:15:17.693Z,95.40
2018-01-16T23:17:44.357Z,95.30
2018-01-16T23:20:11.193Z,95.60
2018-01-16T23:22:37.859Z,95.80
2018-01-16T23:25:04.432Z,95.80
2018-01-16T23:27:31.087Z,95.80
2018-01-16T23:29:58.032Z,96.10
2018-01-16T23:32:24.970Z,96.10
2018-01-16T23:34:51.701Z,96.30
2018-01-16T23:37:19.354Z,96.50
2018-01-16T23:39:46.033Z,96.70
2018-01-16T23:42:12.673Z,96.90
2018-01-16T23:44:39.451Z,97.20
2018-01-16T23:47:06.038Z,97.40
2018-01-16T23:49:32.941Z,97.00
2018-01-16T23:51:59.597Z,97.00
2018-01-16T23:54:26.253Z,96.90
2018-01-16T23:56:53.154Z,96.80
2018-01-16T23:59:20.585Z,96.80
